Cimarron, New Mexico
Current Conditions -  °F | °C
As of 12:55 PM on Thursday 30 Oct 2014 (Local Time) from KAXX Reporting Station
Clear Clear  
Wind Chill: 61°   Ceiling: Unl
Heat Index: 61°   Visibility: 10mi
Dew Point: 13°   Wind: 0mph
Humidity: 15%   Direction: NA
Pressure: 30.42"   Gusts: NA
Location:  36.51°N, 104.92°W
Report Text: KAXX 301855Z AUTO 00000KT 10SM CLR 16/M11 A3042 RMK AO2 T01631107
Loading
Personal Weather Stations






























Interactive Weather Map
Tropical Storm Tracking
New forecast layout! Learn more

10-Day Weather Forecast

Advertisements
Track Severe Weather on mobile